Time;durP1;ratioP1;P1;durP2;ratioP2;P2;SDS_P1;SDS_P2;PMS_P1;PMS_P2;Temp;Humidity;BMP_temperature;BMP_pressure;BME280_temperature;BME280_humidity;BME280_pressure;Samples;Min_cycle;Max_cycle;Signal;HPM_P1;HPM_P2
2022/10/24 00:01:08;;;;;;;12.27;9.10;;;;;;;13.51;100.00;99886.31;5059991;28;20212;-72
2022/10/24 00:03:35;;;;;;;12.60;10.55;;;;;;;13.54;100.00;99888.84;5077760;28;20198;-72
2022/10/24 00:06:02;;;;;;;15.75;9.35;;;;;;;13.46;100.00;99885.75;5066794;28;20208;-72
2022/10/24 00:08:28;;;;;;;21.10;9.00;;;;;;;13.38;100.00;99893.50;5060647;28;20225;-73
2022/10/24 00:10:55;;;;;;;15.85;9.63;;;;;;;13.30;100.00;99899.41;5060285;28;20194;-73
2022/10/24 00:13:23;;;;;;;18.10;9.95;;;;;;;13.28;100.00;99898.66;5060485;28;20205;-73
2022/10/24 00:15:50;;;;;;;17.88;9.65;;;;;;;13.33;100.00;99892.94;5065653;28;20203;-72
2022/10/24 00:18:17;;;;;;;10.40;8.48;;;;;;;13.35;100.00;99901.81;5076042;28;20220;-74
2022/10/24 00:20:44;;;;;;;14.25;9.43;;;;;;;13.34;100.00;99895.56;5077839;28;20224;-73
2022/10/24 00:23:12;;;;;;;15.77;9.60;;;;;;;13.40;100.00;99888.00;5078121;28;20212;-73
2022/10/24 00:25:39;;;;;;;11.35;8.27;;;;;;;13.34;100.00;99892.84;5076569;28;20197;-72
2022/10/24 00:28:05;;;;;;;11.65;8.90;;;;;;;13.26;100.00;99891.56;5075606;28;20227;-73
2022/10/24 00:30:33;;;;;;;11.60;9.05;;;;;;;13.25;100.00;99895.22;5072972;28;20220;-73
2022/10/24 00:33:00;;;;;;;13.52;9.15;;;;;;;13.26;100.00;99883.47;5072660;28;20200;-72
2022/10/24 00:35:26;;;;;;;14.38;9.02;;;;;;;13.15;100.00;99892.25;5072015;28;20211;-73
2022/10/24 00:37:53;;;;;;;14.95;8.07;;;;;;;13.11;100.00;99894.31;5071467;28;20322;-71
2022/10/24 00:40:21;;;;;;;11.52;6.82;;;;;;;13.04;100.00;99892.06;5072407;28;20661;-73
2022/10/24 00:42:48;;;;;;;12.45;7.45;;;;;;;12.91;100.00;99889.25;5072651;28;20300;-71
2022/10/24 00:45:40;;;;;;;17.35;9.63;;;;;;;12.88;100.00;99890.34;5071984;28;20203;-74
2022/10/24 00:48:15;;;;;;;12.45;9.38;;;;;;;12.86;100.00;99880.59;5071551;28;20231;-73
2022/10/24 00:50:42;;;;;;;14.88;8.30;;;;;;;12.87;100.00;99875.09;5071095;28;20189;-73
2022/10/24 00:53:09;;;;;;;13.50;7.90;;;;;;;12.94;100.00;99883.69;5071892;28;20215;-73
2022/10/24 00:55:36;;;;;;;26.30;8.65;;;;;;;12.95;100.00;99874.59;5082365;28;20208;-71
2022/10/24 00:58:04;;;;;;;12.55;8.52;;;;;;;13.03;100.00;99872.28;5085856;28;20227;-71
2022/10/24 01:00:33;;;;;;;11.05;8.30;;;;;;;13.05;100.00;99878.47;5082445;28;20238;-73
2022/10/24 01:03:01;;;;;;;17.35;9.10;;;;;;;13.05;100.00;99870.34;5074737;28;20581;-74
2022/10/24 01:05:32;;;;;;;16.55;9.85;;;;;;;13.06;100.00;99865.81;5054886;28;20225;-72
2022/10/24 01:08:08;;;;;;;12.88;7.55;;;;;;;13.03;100.00;99866.03;5051686;28;20227;-74
2022/10/24 01:10:42;;;;;;;12.63;8.05;;;;;;;12.97;100.00;99872.66;5052025;28;20200;-74
2022/10/24 01:13:19;;;;;;;10.82;7.40;;;;;;;12.83;100.00;99865.44;5052364;28;20562;-75
2022/10/24 01:15:51;;;;;;;12.02;7.30;;;;;;;12.72;100.00;99859.84;5052364;28;20289;-73
2022/10/24 01:18:24;;;;;;;17.13;9.10;;;;;;;12.70;100.00;99859.94;5053268;28;20439;-73
2022/10/24 01:21:15;;;;;;;12.63;8.85;;;;;;;12.70;100.00;99850.97;5033999;28;20228;-73
2022/10/24 01:23:57;;;;;;;13.00;9.00;;;;;;;12.90;100.00;99863.22;5052233;28;20193;-74
2022/10/24 01:26:38;;;;;;;15.13;8.52;;;;;;;12.81;100.00;99866.50;5052175;28;20556;-74
2022/10/24 01:29:11;;;;;;;13.50;8.40;;;;;;;12.87;100.00;99866.13;5054864;28;20228;-73
2022/10/24 01:31:45;;;;;;;13.00;7.55;;;;;;;12.87;100.00;99866.13;5060035;28;20251;-73
2022/10/24 01:34:18;;;;;;;13.82;9.20;;;;;;;12.72;100.00;99846.34;5077811;28;20177;-73
2022/10/24 01:36:51;;;;;;;15.30;9.57;;;;;;;12.83;100.00;99854.63;5066855;28;20205;-72
2022/10/24 01:39:21;;;;;;;14.13;9.10;;;;;;;12.87;100.00;99845.38;5076072;28;20242;-73
2022/10/24 01:41:49;;;;;;;15.02;10.00;;;;;;;12.83;100.00;99846.53;5081644;28;20215;-72
2022/10/24 01:44:22;;;;;;;18.58;10.07;;;;;;;12.77;100.00;99846.03;5079036;28;20204;-72
2022/10/24 01:46:53;;;;;;;15.25;10.20;;;;;;;12.84;100.00;99842.84;5059504;28;20193;-73
2022/10/24 01:49:23;;;;;;;18.85;9.52;;;;;;;12.83;100.00;99841.13;5058026;28;20217;-73
2022/10/24 01:51:56;;;;;;;16.60;10.55;;;;;;;12.83;100.00;99837.56;5058901;28;20192;-73
2022/10/24 01:54:23;;;;;;;20.92;9.98;;;;;;;12.90;100.00;99838.91;5054152;28;20670;-71
2022/10/24 01:56:50;;;;;;;17.00;8.60;;;;;;;12.86;100.00;99840.06;5051567;28;20209;-72
2022/10/24 01:59:40;;;;;;;11.02;8.63;;;;;;;12.81;100.00;99834.94;5054684;28;20217;-73
2022/10/24 02:02:12;;;;;;;11.05;8.73;;;;;;;12.69;100.00;99835.72;5055333;28;20262;-73
2022/10/24 02:04:43;;;;;;;8.27;6.72;;;;;;;12.67;100.00;99832.25;5055258;28;20197;-72
2022/10/24 02:07:13;;;;;;;13.00;7.70;;;;;;;12.65;100.00;99829.66;5055210;28;20212;-73
2022/10/24 02:09:43;;;;;;;14.13;8.27;;;;;;;12.65;100.00;99829.66;5055444;28;20202;-73
2022/10/24 02:12:14;;;;;;;9.90;8.63;;;;;;;12.62;100.00;99821.75;5055838;28;20659;-73
2022/10/24 02:14:45;;;;;;;11.77;7.20;;;;;;;12.68;100.00;99823.19;5056138;28;20532;-74
2022/10/24 02:17:14;;;;;;;11.52;6.55;;;;;;;12.54;100.00;99805.13;5055679;28;20197;-72
2022/10/24 02:19:41;;;;;;;12.23;8.20;;;;;;;12.59;100.00;99808.41;5068830;28;20211;-72
2022/10/24 02:22:17;;;;;;;12.10;7.80;;;;;;;12.58;100.00;99809.38;5069689;28;20221;-72
2022/10/24 02:24:49;;;;;;;14.35;8.60;;;;;;;12.65;100.00;99829.66;5067847;28;20186;-74
2022/10/24 02:27:21;;;;;;;13.20;7.68;;;;;;;12.53;100.00;99822.31;5059308;28;20196;-71
2022/10/24 02:29:53;;;;;;;11.52;6.18;;;;;;;12.45;100.00;99832.72;5056187;28;20564;-71
2022/10/24 02:32:27;;;;;;;9.35;6.93;;;;;;;12.25;100.00;99833.94;5056255;28;20193;-74
2022/10/24 02:34:55;;;;;;;8.65;6.47;;;;;;;12.21;100.00;99836.00;5055845;28;20374;-73
2022/10/24 02:37:23;;;;;;;13.00;6.95;;;;;;;12.16;100.00;99838.06;5055032;28;20228;-74
2022/10/24 02:39:51;;;;;;;11.73;7.25;;;;;;;12.10;100.00;99841.19;5065781;28;20211;-74
2022/10/24 02:42:20;;;;;;;12.10;6.90;;;;;;;12.09;100.00;99828.63;5055299;28;20256;-74
2022/10/24 02:44:48;;;;;;;11.95;7.32;;;;;;;12.07;100.00;99827.84;5054810;28;20205;-74
2022/10/24 02:47:15;;;;;;;12.77;7.78;;;;;;;12.05;100.00;99827.06;5054395;28;20205;-73
2022/10/24 02:49:44;;;;;;;13.48;7.50;;;;;;;11.99;100.00;99831.03;5054734;28;20205;-72
2022/10/24 02:52:11;;;;;;;15.18;8.38;;;;;;;12.16;100.00;99827.28;5054631;28;20201;-72
2022/10/24 02:54:37;;;;;;;11.02;8.85;;;;;;;12.05;100.00;99835.16;5060974;28;20666;-74
2022/10/24 02:57:04;;;;;;;15.57;8.48;;;;;;;12.22;100.00;99829.63;5074062;28;20213;-74
2022/10/24 02:59:31;;;;;;;10.43;8.32;;;;;;;12.16;100.00;99827.28;5074677;28;20197;-73
2022/10/24 03:01:57;;;;;;;14.55;8.77;;;;;;;12.18;100.00;99824.50;5075349;28;20246;-74
2022/10/24 03:04:24;;;;;;;15.82;7.55;;;;;;;12.21;100.00;99832.41;5073574;28;20208;-72
2022/10/24 03:06:52;;;;;;;14.57;8.20;;;;;;;12.19;100.00;99840.63;5055124;28;20201;-73
2022/10/24 03:09:19;;;;;;;16.77;7.43;;;;;;;12.12;100.00;99839.25;5058705;28;20229;-72
2022/10/24 03:11:45;;;;;;;9.23;7.80;;;;;;;12.25;100.00;99836.66;5056915;28;20205;-74
2022/10/24 03:14:12;;;;;;;17.65;9.40;;;;;;;12.16;100.00;99835.38;5056506;28;20197;-73
2022/10/24 03:16:39;;;;;;;15.63;9.68;;;;;;;12.27;100.00;99830.19;5056433;28;20620;-73
2022/10/24 03:19:05;;;;;;;14.55;8.18;;;;;;;12.31;100.00;99831.75;5062442;28;20227;-73
2022/10/24 03:21:32;;;;;;;11.90;7.88;;;;;;;12.26;100.00;99822.22;5057047;28;20217;-73
2022/10/24 03:24:00;;;;;;;18.23;7.95;;;;;;;12.30;100.00;99812.94;5064361;28;20296;-72
2022/10/24 03:26:27;;;;;;;12.63;7.15;;;;;;;12.32;100.00;99816.41;5078252;28;20212;-73
2022/10/24 03:28:53;;;;;;;12.32;6.65;;;;;;;12.29;100.00;99811.22;5077300;28;20232;-72
2022/10/24 03:31:19;;;;;;;10.30;7.75;;;;;;;12.31;100.00;99817.38;5056964;28;20201;-71
2022/10/24 03:33:46;;;;;;;10.23;8.10;;;;;;;12.07;100.00;99820.63;5054315;28;20212;-74
2022/10/24 03:36:13;;;;;;;14.27;8.02;;;;;;;12.14;100.00;99828.34;5054028;28;20205;-73
2022/10/24 03:38:39;;;;;;;13.07;7.22;;;;;;;12.22;100.00;99828.75;5053896;28;20255;-73
2022/10/24 03:41:07;;;;;;;12.10;7.13;;;;;;;12.23;100.00;99835.88;5054075;28;20205;-73
2022/10/24 03:43:34;;;;;;;14.35;8.68;;;;;;;12.33;100.00;99834.38;5054524;28;20714;-73
2022/10/24 03:46:00;;;;;;;11.52;8.85;;;;;;;12.36;100.00;99844.97;5077519;28;20565;-72
2022/10/24 03:48:27;;;;;;;14.98;7.95;;;;;;;12.28;100.00;99845.44;5086798;28;20223;-73
2022/10/24 03:50:53;;;;;;;11.27;7.20;;;;;;;12.17;100.00;99850.63;5081364;28;20196;-72
2022/10/24 03:53:20;;;;;;;12.35;7.97;;;;;;;12.19;100.00;99845.13;5060440;28;20666;-73
2022/10/24 03:55:46;;;;;;;13.18;7.97;;;;;;;12.31;100.00;99844.38;5055363;28;20204;-74
2022/10/24 03:58:14;;;;;;;10.13;7.70;;;;;;;12.24;100.00;99843.88;5053684;28;20236;-74
2022/10/24 04:00:41;;;;;;;13.55;8.45;;;;;;;12.29;100.00;99847.16;5054459;28;20205;-73
2022/10/24 04:03:09;;;;;;;10.20;7.95;;;;;;;12.31;100.00;99845.25;5053063;28;20239;-72
2022/10/24 04:05:36;;;;;;;17.63;8.40;;;;;;;12.45;100.00;99859.72;5055017;28;20197;-73
2022/10/24 04:08:03;;;;;;;10.52;7.43;;;;;;;12.55;100.00;99863.63;5069900;28;20220;-72
2022/10/24 04:10:30;;;;;;;10.90;8.40;;;;;;;12.44;100.00;99860.72;5074919;28;20295;-74
2022/10/24 04:12:56;;;;;;;12.57;7.78;;;;;;;12.54;100.00;99840.25;5073211;28;20197;-74
2022/10/24 04:15:24;;;;;;;12.55;8.40;;;;;;;12.56;100.00;99848.28;5069740;28;20189;-73
2022/10/24 04:17:51;;;;;;;16.48;8.25;;;;;;;12.54;100.00;99851.06;5063855;28;20236;-72
2022/10/24 04:20:19;;;;;;;12.52;8.07;;;;;;;12.63;100.00;99855.03;5052325;28;20209;-72
2022/10/24 04:22:46;;;;;;;11.27;8.10;;;;;;;12.61;100.00;99855.09;5053444;28;20619;-73
2022/10/24 04:25:13;;;;;;;13.95;7.55;;;;;;;12.50;100.00;99841.41;5052961;28;20208;-71
2022/10/24 04:27:39;;;;;;;13.52;6.97;;;;;;;12.60;100.00;99826.38;5060764;28;20307;-72
2022/10/24 04:30:07;;;;;;;41.58;24.13;;;;;;;12.55;100.00;99833.91;5094424;28;20189;-71
2022/10/24 04:32:35;;;;;;;60.65;40.38;;;;;;;12.58;100.00;99828.31;5096700;28;20249;-71
2022/10/24 04:35:04;;;;;;;33.35;18.98;;;;;;;12.60;100.00;99839.88;5080919;28;20261;-71
2022/10/24 04:37:30;;;;;;;12.88;9.20;;;;;;;12.61;100.00;99835.34;5060144;28;20235;-73
2022/10/24 04:39:57;;;;;;;17.83;9.50;;;;;;;12.66;100.00;99834.09;5052788;28;20201;-71
2022/10/24 04:42:24;;;;;;;18.58;8.52;;;;;;;12.72;100.00;99843.63;5052617;28;20303;-72
2022/10/24 04:44:51;;;;;;;11.50;8.25;;;;;;;12.78;100.00;99842.41;5052307;28;20692;-73
2022/10/24 04:47:18;;;;;;;29.88;18.77;;;;;;;12.84;100.00;99847.38;5052194;28;20212;-72
2022/10/24 04:49:46;;;;;;;34.55;22.45;;;;;;;12.77;100.00;99848.75;5057057;28;20197;-70
2022/10/24 04:52:12;;;;;;;18.75;14.07;;;;;;;12.81;100.00;99853.00;5063272;28;20181;-74
2022/10/24 04:54:39;;;;;;;17.20;9.65;;;;;;;12.72;100.00;99851.75;5052281;28;20212;-71
2022/10/24 04:57:05;;;;;;;12.65;7.68;;;;;;;12.81;100.00;99850.28;5068560;28;20204;-73
2022/10/24 04:59:32;;;;;;;18.67;8.82;;;;;;;12.80;100.00;99848.53;5072219;28;20577;-72
2022/10/24 05:01:58;;;;;;;10.70;7.43;;;;;;;12.68;100.00;99837.53;5072110;28;20224;-72
2022/10/24 05:04:25;;;;;;;14.80;8.15;;;;;;;12.75;100.00;99839.88;5055055;28;20196;-73
2022/10/24 05:06:53;;;;;;;12.73;7.85;;;;;;;12.80;100.00;99832.31;5052281;28;20197;-73
2022/10/24 05:09:20;;;;;;;21.73;7.85;;;;;;;12.90;100.00;99849.72;5068644;28;20435;-74
2022/10/24 05:11:46;;;;;;;9.23;7.00;;;;;;;12.88;100.00;99846.22;5070077;28;20206;-73
2022/10/24 05:14:13;;;;;;;12.82;7.30;;;;;;;12.79;100.00;99842.28;5052922;28;20197;-74
2022/10/24 05:16:39;;;;;;;11.85;7.53;;;;;;;12.89;100.00;99853.41;5052768;28;20205;-73
2022/10/24 05:19:06;;;;;;;16.40;12.07;;;;;;;12.89;100.00;99861.50;5052075;28;20279;-73
2022/10/24 05:21:33;;;;;;;18.30;8.30;;;;;;;12.79;100.00;99849.53;5057847;28;20197;-72
2022/10/24 05:24:00;;;;;;;14.82;11.00;;;;;;;12.76;100.00;99847.03;5066881;28;20228;-73
2022/10/24 05:26:27;;;;;;;14.25;7.70;;;;;;;12.70;100.00;99854.53;5059834;28;20571;-74
2022/10/24 05:28:54;;;;;;;11.80;7.30;;;;;;;12.64;100.00;99860.34;5052762;28;20554;-73
2022/10/24 05:31:20;;;;;;;13.10;7.25;;;;;;;12.54;100.00;99855.59;5059309;28;20224;-73
2022/10/24 05:33:47;;;;;;;14.95;6.97;;;;;;;12.44;100.00;99852.63;5061475;28;20208;-71
2022/10/24 05:36:13;;;;;;;10.68;7.60;;;;;;;12.46;100.00;99850.69;5063380;28;20205;-74
2022/10/24 05:38:40;;;;;;;13.13;8.32;;;;;;;12.42;100.00;99851.84;5089932;23;20710;-73
2022/10/24 05:41:07;;;;;;;12.57;7.30;;;;;;;12.45;100.00;99851.63;5118813;28;20195;-72
2022/10/24 05:43:34;;;;;;;15.38;7.00;;;;;;;12.42;100.00;99854.53;5119404;28;20245;-73
2022/10/24 05:46:01;;;;;;;11.65;7.18;;;;;;;12.45;100.00;99866.00;5118499;28;20199;-72
2022/10/24 05:48:27;;;;;;;10.65;6.75;;;;;;;12.54;100.00;99869.09;5118778;28;20650;-73
2022/10/24 05:50:56;;;;;;;13.70;10.52;;;;;;;12.58;100.00;99862.56;5119385;27;20199;-73
2022/10/24 05:53:24;;;;;;;18.95;11.50;;;;;;;12.54;100.00;99878.06;5119595;27;20199;-72
2022/10/24 05:55:50;;;;;;;29.00;16.58;;;;;;;12.50;100.00;99873.81;5120347;28;20609;-72
2022/10/24 05:58:21;;;;;;;27.42;20.73;;;;;;;12.51;100.00;99873.72;5121651;28;20225;-73
2022/10/24 06:00:48;;;;;;;31.83;20.52;;;;;;;12.50;100.00;99876.50;5122009;28;20184;-72
2022/10/24 06:03:14;;;;;;;21.70;16.98;;;;;;;12.46;100.00;99880.38;5123257;28;20279;-73
2022/10/24 06:05:41;;;;;;;18.15;9.25;;;;;;;12.47;100.00;99876.72;5122562;28;20199;-74
2022/10/24 06:08:07;;;;;;;17.30;11.80;;;;;;;12.46;100.00;99877.69;5124909;28;20219;-73
2022/10/24 06:10:35;;;;;;;13.23;8.13;;;;;;;12.39;100.00;99889.81;5125281;28;20643;-72
2022/10/24 06:13:02;;;;;;;18.38;10.00;;;;;;;12.42;100.00;99889.63;5125693;28;20197;-73
2022/10/24 06:15:29;;;;;;;18.67;10.18;;;;;;;12.47;100.00;99885.69;5118853;28;20202;-74
2022/10/24 06:17:56;;;;;;;15.23;9.45;;;;;;;12.51;100.00;99886.38;5120455;28;20680;-74
2022/10/24 06:20:23;;;;;;;14.70;7.82;;;;;;;12.57;100.00;99882.41;5120256;28;20205;-74
2022/10/24 06:22:50;;;;;;;11.70;7.28;;;;;;;12.55;100.00;99890.63;5120245;28;20223;-73
2022/10/24 06:25:17;;;;;;;13.02;6.28;;;;;;;12.52;100.00;99883.56;5119932;28;20195;-73
2022/10/24 06:27:44;;;;;;;10.43;6.75;;;;;;;12.55;100.00;99898.72;5120722;28;20199;-74
2022/10/24 06:30:11;;;;;;;10.60;6.78;;;;;;;12.63;100.00;99907.22;5123122;28;20199;-72
2022/10/24 06:32:39;;;;;;;11.90;6.60;;;;;;;12.62;100.00;99910.88;5122121;28;20568;-72
2022/10/24 06:35:07;;;;;;;13.20;7.13;;;;;;;12.60;100.00;99911.94;5122693;28;20195;-72
2022/10/24 06:37:35;;;;;;;9.50;6.50;;;;;;;12.63;100.00;99918.03;5122392;28;20203;-74
2022/10/24 06:40:01;;;;;;;13.18;7.05;;;;;;;12.64;100.00;99914.38;5122001;28;20239;-73
2022/10/24 06:42:28;;;;;;;10.07;7.88;;;;;;;12.76;100.00;99919.97;5121939;28;20223;-74
2022/10/24 06:44:54;;;;;;;10.63;8.40;;;;;;;12.82;100.00;99924.97;5119120;28;20205;-74
2022/10/24 06:47:21;;;;;;;11.80;7.18;;;;;;;12.89;100.00;99926.38;5120815;28;20213;-73
2022/10/24 06:49:49;;;;;;;10.43;6.75;;;;;;;12.96;100.00;99921.41;5119042;28;20314;-73
2022/10/24 06:52:15;;;;;;;9.65;6.50;;;;;;;12.95;100.00;99923.25;5120117;28;20199;-73
2022/10/24 06:54:42;;;;;;;12.00;7.07;;;;;;;12.98;100.00;99927.59;5117421;27;20323;-73
2022/10/24 06:57:09;;;;;;;12.57;6.72;;;;;;;13.04;100.00;99930.78;5117442;28;20210;-72
2022/10/24 06:59:35;;;;;;;11.02;6.45;;;;;;;13.21;100.00;99923.47;5103956;28;20238;-74
2022/10/24 07:02:02;;;;;;;14.25;7.47;;;;;;;13.32;100.00;99932.66;5101832;28;20200;-73
2022/10/24 07:04:28;;;;;;;11.57;6.25;;;;;;;13.41;100.00;99933.91;5109475;28;20564;-72
2022/10/24 07:06:56;;;;;;;12.35;6.32;;;;;;;13.48;100.00;99935.22;5108578;28;20214;-72
2022/10/24 07:09:23;;;;;;;17.08;6.50;;;;;;;13.55;100.00;99933.84;5108347;28;20227;-72
2022/10/24 07:11:49;;;;;;;10.60;6.38;;;;;;;13.57;100.00;99936.47;5108287;28;20219;-72
2022/10/24 07:14:16;;;;;;;8.20;5.93;;;;;;;13.62;100.00;99944.28;5109301;28;20200;-73
2022/10/24 07:16:43;;;;;;;11.23;7.22;;;;;;;13.70;100.00;99942.81;5110812;28;20204;-72
2022/10/24 07:19:10;;;;;;;10.52;5.50;;;;;;;13.81;100.00;99938.53;5110776;28;20219;-71
2022/10/24 07:21:37;;;;;;;12.88;7.85;;;;;;;13.79;100.00;99943.16;5111057;28;20202;-71
2022/10/24 07:24:06;;;;;;;12.15;6.95;;;;;;;13.80;100.00;99937.66;5110201;28;20697;-72
2022/10/24 07:26:32;;;;;;;9.82;7.13;;;;;;;13.77;100.00;99937.88;5107148;28;20206;-72
2022/10/24 07:29:01;;;;;;;14.27;7.72;;;;;;;13.79;100.00;99946.72;5106948;28;20290;-73
2022/10/24 07:31:30;;;;;;;10.88;6.40;;;;;;;13.89;100.00;99941.59;5105089;28;20676;-72
2022/10/24 07:33:57;;;;;;;13.43;6.78;;;;;;;13.90;100.00;99936.06;5103257;28;20204;-72
2022/10/24 07:36:25;;;;;;;14.27;7.35;;;;;;;13.94;100.00;99947.56;5096593;28;20204;-72
2022/10/24 07:38:54;;;;;;;14.75;6.45;;;;;;;13.98;100.00;99951.81;5095139;28;20243;-72
2022/10/24 07:41:23;;;;;;;13.55;7.47;;;;;;;14.07;100.00;99956.59;5095723;28;20192;-73
2022/10/24 07:43:50;;;;;;;9.07;7.18;;;;;;;14.21;100.00;99952.13;5111630;28;20218;-73
2022/10/24 07:46:18;;;;;;;15.77;7.50;;;;;;;14.28;100.00;99965.13;5115694;28;20203;-73
2022/10/24 07:48:45;;;;;;;10.90;6.50;;;;;;;14.35;100.00;99969.16;5114971;27;20226;-74
2022/10/24 07:51:14;;;;;;;14.32;6.90;;;;;;;14.44;100.00;99980.34;5115935;27;20205;-74
2022/10/24 07:53:41;;;;;;;13.98;5.75;;;;;;;14.57;100.00;99973.16;5116882;28;20199;-74
2022/10/24 07:56:12;;;;;;;11.40;5.90;;;;;;;14.73;100.00;99970.25;5115923;27;20195;-74
2022/10/24 07:58:40;;;;;;;12.73;6.10;;;;;;;14.93;100.00;99971.56;5116319;28;20215;-74
2022/10/24 08:01:09;;;;;;;12.23;5.70;;;;;;;15.16;100.00;99965.38;5116032;28;20724;-74
2022/10/24 08:03:36;;;;;;;9.93;5.15;;;;;;;15.36;100.00;99961.22;5116027;28;20229;-73
2022/10/24 08:06:05;;;;;;;18.48;7.00;;;;;;;15.38;100.00;99967.41;5100640;28;20278;-73
2022/10/24 08:08:31;;;;;;;15.57;5.90;;;;;;;15.47;100.00;99974.03;5095451;28;20593;-73
2022/10/24 08:10:58;;;;;;;10.38;5.30;;;;;;;15.54;100.00;99969.88;5096304;28;20634;-72
2022/10/24 08:13:24;;;;;;;15.48;5.55;;;;;;;15.70;100.00;99976.91;5099154;28;20199;-73
2022/10/24 08:15:52;;;;;;;18.10;5.72;;;;;;;15.80;100.00;99973.41;5099812;28;20230;-72
2022/10/24 08:18:19;;;;;;;12.82;5.25;;;;;;;15.87;100.00;99973.81;5098151;28;20608;-74
2022/10/24 08:20:45;;;;;;;11.55;5.43;;;;;;;15.93;100.00;99965.22;5096014;28;20200;-73
2022/10/24 08:23:12;;;;;;;14.27;5.20;;;;;;;15.87;100.00;99964.81;5096518;28;20847;-72
2022/10/24 08:25:39;;;;;;;13.57;4.45;;;;;;;15.99;100.00;99977.50;5098446;28;20207;-74
2022/10/24 08:28:06;;;;;;;11.60;4.90;;;;;;;16.17;100.00;99970.69;5094045;28;20735;-73
2022/10/24 08:30:32;;;;;;;18.20;5.70;;;;;;;16.31;100.00;99966.06;5094609;28;20778;-72
2022/10/24 08:33:00;;;;;;;12.73;4.80;;;;;;;16.48;100.00;99962.88;5097492;28;20691;-74
2022/10/24 08:35:27;;;;;;;12.05;4.95;;;;;;;16.85;100.00;99949.19;5094178;28;20214;-73
2022/10/24 08:37:53;;;;;;;12.48;5.45;;;;;;;16.97;100.00;99955.53;5094837;28;20206;-73
2022/10/24 08:40:20;;;;;;;9.52;4.25;;;;;;;17.15;100.00;99950.47;5093838;28;20215;-72
2022/10/24 08:42:49;;;;;;;12.07;4.85;;;;;;;17.39;100.00;99934.00;5093406;28;20228;-74
2022/10/24 08:45:23;;;;;;;11.70;4.32;;;;;;;17.59;100.00;99932.38;5095749;28;20212;-73
2022/10/24 08:47:56;;;;;;;12.88;5.10;;;;;;;17.67;100.00;99927.19;5097055;27;20195;-74
2022/10/24 08:50:29;;;;;;;15.85;4.50;;;;;;;17.82;100.00;99927.78;5095897;28;20195;-72
2022/10/24 08:53:00;;;;;;;13.07;5.45;;;;;;;18.18;100.00;99917.50;5094521;28;20238;-73
2022/10/24 08:55:30;;;;;;;17.70;5.07;;;;;;;18.22;100.00;99916.25;5095026;28;20268;-76
2022/10/24 08:58:00;;;;;;;28.42;5.20;;;;;;;18.49;100.00;99915.75;5094447;28;20184;-75
2022/10/24 09:00:33;;;;;;;13.27;5.17;;;;;;;18.52;100.00;99921.84;5094382;28;20673;-73
2022/10/24 09:03:04;;;;;;;15.27;4.97;;;;;;;18.53;100.00;99912.63;5094397;28;20469;-72
2022/10/24 09:05:37;;;;;;;18.65;5.72;;;;;;;18.72;100.00;99919.22;5098435;28;20430;-73
2022/10/24 09:08:18;;;;;;;10.87;4.50;;;;;;;19.03;100.00;99914.69;5104310;28;20180;-74
2022/10/24 09:10:49;;;;;;;13.73;4.10;;;;;;;18.94;100.00;99910.91;5105650;28;20508;-73
2022/10/24 09:13:17;;;;;;;13.60;4.50;;;;;;;18.70;100.00;99923.94;5101666;28;20784;-73
2022/10/24 09:15:46;;;;;;;13.30;4.70;;;;;;;18.52;100.00;99916.38;5101020;28;20434;-73
2022/10/24 09:18:19;;;;;;;15.77;5.40;;;;;;;18.47;100.00;99921.34;5101007;28;20454;-73
2022/10/24 09:20:48;;;;;;;14.50;7.70;;;;;;;18.32;100.00;99931.72;5100750;28;20422;-74
2022/10/24 09:23:17;;;;;;;11.43;4.60;;;;;;;18.47;100.00;99929.50;5101307;28;20445;-74
2022/10/24 09:25:47;;;;;;;11.10;4.40;;;;;;;18.70;100.00;99919.38;5101583;28;20513;-73
2022/10/24 09:28:15;;;;;;;14.63;4.93;;;;;;;19.05;100.00;99911.84;5104024;27;20829;-74
2022/10/24 09:30:42;;;;;;;10.80;4.80;;;;;;;19.41;100.00;99907.69;5121097;27;20527;-73
2022/10/24 09:33:32;;;;;;;11.27;4.80;;;;;;;19.37;100.00;99896.16;5120991;27;20987;-73
2022/10/24 09:36:02;;;;;;;15.20;4.63;;;;;;;19.41;100.00;99895.91;5121263;27;20423;-75
2022/10/24 09:38:32;;;;;;;10.67;4.10;;;;;;;19.85;100.00;99904.66;5121960;27;20469;-74
2022/10/24 09:41:03;;;;;;;11.90;4.53;;;;;;;20.68;100.00;99902.41;5122635;27;20421;-74
2022/10/24 09:43:38;;;;;;;12.70;4.37;;;;;;;21.69;100.00;99908.09;5122437;27;20829;-74
2022/10/24 09:46:08;;;;;;;13.93;4.17;;;;;;;22.25;100.00;99907.88;5121643;27;20459;-73
2022/10/24 09:48:45;;;;;;;12.23;3.67;;;;;;;22.46;100.00;99906.69;5120742;27;20993;-73
2022/10/24 09:51:23;;;;;;;10.10;3.63;;;;;;;22.99;100.00;99900.25;5121147;27;20474;-73
2022/10/24 09:54:25;;;;;;;11.33;3.37;;;;;;;22.33;100.00;99903.47;5121484;27;20874;-73
2022/10/24 09:56:55;;;;;;;8.77;3.40;;;;;;;21.97;100.00;99904.28;5119349;28;20440;-75
2022/10/24 09:59:34;;;;;;;9.13;4.43;;;;;;;21.68;100.00;99903.63;5120943;27;20990;-74
2022/10/24 10:02:23;;;;;;;11.40;4.17;;;;;;;21.18;100.00;99911.16;5121712;27;20425;-75
2022/10/24 10:05:10;;;;;;;10.83;4.00;;;;;;;20.57;100.00;99911.63;5116065;27;20932;-74
2022/10/24 10:07:40;;;;;;;10.63;3.90;;;;;;;20.15;100.00;99912.75;5101250;28;20854;-74
2022/10/24 10:10:24;;;;;;;8.90;4.00;;;;;;;19.92;100.00;99917.63;5101652;28;20463;-74
2022/10/24 10:12:58;;;;;;;16.97;4.30;;;;;;;19.91;100.00;99918.63;5101627;28;20437;-74
2022/10/24 10:15:29;;;;;;;10.10;3.63;;;;;;;20.19;100.00;99924.25;5101292;28;20420;-76
2022/10/24 10:18:00;;;;;;;9.27;4.30;;;;;;;20.80;100.00;99915.78;5098986;28;20452;-74
2022/10/24 10:20:30;;;;;;;7.33;3.30;;;;;;;21.62;100.00;99924.28;5097451;28;20438;-74
2022/10/24 10:23:16;;;;;;;8.97;3.67;;;;;;;21.36;100.00;99922.19;5097215;28;20934;-73
2022/10/24 10:25:43;;;;;;;11.47;3.50;;;;;;;20.92;100.00;99915.59;5099212;28;20773;-74
2022/10/24 10:28:19;;;;;;;9.60;3.30;;;;;;;20.88;100.00;99923.22;5095374;28;20473;-74
2022/10/24 10:30:49;;;;;;;12.27;4.03;;;;;;;20.89;100.00;99916.72;5096976;28;20428;-74
2022/10/24 10:33:20;;;;;;;6.23;3.63;;;;;;;21.98;100.00;99919.75;5096759;28;21080;-74
2022/10/24 10:35:57;;;;;;;8.90;3.23;;;;;;;22.78;100.00;99913.47;5097326;28;20445;-74
2022/10/24 10:38:42;;;;;;;10.90;4.00;;;;;;;22.99;100.00;99913.97;5097207;28;20982;-74
2022/10/24 10:41:18;;;;;;;12.67;3.57;;;;;;;23.23;100.00;99921.50;5098417;28;20899;-73
2022/10/24 10:43:53;;;;;;;6.00;3.03;;;;;;;24.34;100.00;99906.78;5097017;28;20487;-74
2022/10/24 10:46:29;;;;;;;15.10;3.13;;;;;;;24.02;100.00;99910.34;5097669;28;20421;-74
2022/10/24 10:49:05;;;;;;;11.87;2.97;;;;;;;23.85;100.00;99914.94;5096998;28;20875;-76
2022/10/24 10:51:42;;;;;;;8.77;3.00;;;;;;;23.59;100.00;99910.34;5096628;28;20522;-75
2022/10/24 10:54:25;;;;;;;6.93;3.17;;;;;;;22.73;100.00;99904.84;5096180;28;20817;-76
2022/10/24 10:56:55;;;;;;;9.93;3.40;;;;;;;22.54;100.00;99904.00;5096493;28;20552;-74
2022/10/24 10:59:37;;;;;;;8.93;3.80;;;;;;;22.16;100.00;99911.53;5095934;28;20464;-73
2022/10/24 11:02:26;;;;;;;8.67;3.67;;;;;;;21.57;100.00;99905.56;5096685;28;20449;-76
2022/10/24 11:05:02;;;;;;;10.13;4.03;;;;;;;21.56;100.00;99909.31;5098412;27;20457;-75
2022/10/24 11:07:39;;;;;;;9.70;3.90;;;;;;;21.84;100.00;99909.28;5095979;28;20777;-73
2022/10/24 11:10:10;;;;;;;10.77;3.60;;;;;;;22.89;100.00;99900.31;5096308;28;20474;-74
2022/10/24 11:12:40;;;;;;;8.50;3.20;;;;;;;23.17;100.00;99910.31;5096799;28;20413;-75
2022/10/24 11:15:14;;;;;;;6.53;3.00;;;;;;;22.92;100.00;99901.03;5096640;28;20426;-75
2022/10/24 11:17:49;;;;;;;9.70;3.10;;;;;;;22.89;100.00;99910.44;5096350;28;20792;-74
2022/10/24 11:20:19;;;;;;;8.27;3.50;;;;;;;23.28;100.00;99894.41;5096339;28;20425;-74
2022/10/24 11:22:51;;;;;;;6.03;2.97;;;;;;;22.95;100.00;99904.31;5096109;28;20433;-74
2022/10/24 11:25:25;;;;;;;5.00;2.60;;;;;;;22.07;100.00;99915.22;5095664;28;20846;-76
2022/10/24 11:27:59;;;;;;;7.67;2.97;;;;;;;21.69;100.00;99913.59;5096050;28;20418;-74